Pagrindinis puslapis
METAR-TAF:

METAR-TAF

Oro uostai :

Chicago Executive Airport

Wheeling-Prospect Heights, Ilinojus, Jungtinės Amerikos Valstijos

platuma: 42-07-15N, ilguma: 087-54-17W, Aukštis: 197 m

Dabartinis oras

Ataskaita buvo paskelbta 1 valandą ir 2 minutes, ne 09:52 UTC
Ramus vėjas
Temperatūra 5°C
Drėgmė 81%
Slėgis 1016 hPa
Matomumas: 16.1 km
Giedras dangus

METAR: KPWK 150952Z AUTO 00000KT 10SM CLR 05/02 A2999 RMK AO2 SLP157 T00500022

Laikas: 05:54 (10:54 UTC)


TAF: trūkstamas

Orai ataskaitas ir orų prognozės (METAR, TAF).

turimą stotys yra geltonos ir raudonos taškus žemėlapyje.

Perkelti pele per norėdami pamatyti stoties vardą.

Tada spustelėkite, norėdami matyti oro stebėjimo ir prognozės.

Norėdami pakeisti žemėlapį: spustelėkite ant žalios mygtukų su juodo kryžiaus žemyn,; žalią mygtuką su brūkšneliu, jei norite nutolinti; arba žalių rodyklių gretimoms žemėlapius.


METAR-TAF: